Time;durP1;ratioP1;P1;durP2;ratioP2;P2;SDS_P1;SDS_P2;PMS_P1;PMS_P2;Temp;Humidity;BMP_temperature;BMP_pressure;BME280_temperature;BME280_humidity;BME280_pressure;Samples;Min_cycle;Max_cycle;Signal;HPM_P1;HPM_P2
2021/06/01 00:01:36;;;;;;;2.88;1.10;;;23.60;43.30;;;;;;5012347;28;20033;-61
2021/06/01 00:04:02;;;;;;;1.85;0.98;;;23.50;43.30;;;;;;5013009;28;20098;-61
2021/06/01 00:06:27;;;;;;;2.45;1.00;;;23.60;43.30;;;;;;5016679;28;20045;-60
2021/06/01 00:08:54;;;;;;;1.38;0.88;;;23.50;43.20;;;;;;5014018;28;20088;-61
2021/06/01 00:11:20;;;;;;;2.35;0.98;;;23.50;43.20;;;;;;5025274;28;20033;-61
2021/06/01 00:13:46;;;;;;;2.70;0.90;;;23.50;43.20;;;;;;5022587;28;20124;-60
2021/06/01 00:16:12;;;;;;;1.95;0.90;;;23.50;43.20;;;;;;5022764;28;20684;-61
2021/06/01 00:18:40;;;;;;;2.17;1.05;;;23.50;43.20;;;;;;5023395;28;20108;-61
2021/06/01 00:21:06;;;;;;;2.55;0.98;;;23.40;43.20;;;;;;5028253;28;20037;-61
2021/06/01 00:23:35;;;;;;;1.70;0.80;;;23.40;43.20;;;;;;5022181;28;20037;-61
2021/06/01 00:26:01;;;;;;;4.50;1.15;;;23.40;43.20;;;;;;5028206;28;20041;-62
2021/06/01 00:28:27;;;;;;;2.90;1.10;;;23.40;43.20;;;;;;5024160;28;20707;-61
2021/06/01 00:30:53;;;;;;;3.08;0.90;;;23.40;43.20;;;;;;5026837;28;20048;-61
2021/06/01 00:33:18;;;;;;;2.05;0.80;;;23.40;43.20;;;;;;5029432;28;20511;-62
2021/06/01 00:35:44;;;;;;;1.35;0.85;;;23.40;43.20;;;;;;5014344;28;20017;-61
2021/06/01 00:38:10;;;;;;;2.17;1.10;;;23.40;43.20;;;;;;5014353;28;20040;-62
2021/06/01 00:40:35;;;;;;;1.73;1.00;;;23.40;43.10;;;;;;5024365;28;20369;-62
2021/06/01 00:43:01;;;;;;;2.30;0.90;;;23.40;43.20;;;;;;5023696;28;20014;-61
2021/06/01 00:45:27;;;;;;;1.70;0.82;;;23.30;43.60;;;;;;5026359;28;20302;-62
2021/06/01 00:47:54;;;;;;;2.25;0.90;;;23.40;43.20;;;;;;5027075;28;20048;-62
2021/06/01 00:50:25;;;;;;;2.05;0.90;;;23.30;43.10;;;;;;5025754;28;20087;-62
2021/06/01 00:52:52;;;;;;;1.92;0.90;;;23.30;43.10;;;;;;5023387;28;20029;-61
2021/06/01 00:55:18;;;;;;;2.35;0.88;;;23.30;43.10;;;;;;5017603;28;20459;-62
2021/06/01 00:57:44;;;;;;;2.72;0.85;;;23.30;43.20;;;;;;5014763;28;20029;-62
2021/06/01 01:01:06;;;;;;;1.75;0.98;;;23.30;43.10;;;;;;5021407;28;20025;-62
2021/06/01 01:03:00;;;;;;;1.60;0.90;;;23.30;43.20;;;;;;5024532;28;20029;-61
2021/06/01 01:05:33;;;;;;;1.63;0.90;;;23.30;43.10;;;;;;5018687;28;20105;-62
2021/06/01 01:08:31;;;;;;;1.92;1.00;;;23.30;43.10;;;;;;5024513;28;20623;-61
2021/06/01 01:11:03;;;;;;;1.70;0.90;;;23.30;43.20;;;;;;5015392;28;20116;-62
2021/06/01 01:13:37;;;;;;;1.77;0.90;;;23.30;43.20;;;;;;5027033;28;20050;-61
2021/06/01 01:16:04;;;;;;;1.75;1.00;;;23.30;43.20;;;;;;5023916;28;20021;-62
2021/06/01 01:18:33;;;;;;;2.08;1.10;;;23.30;43.50;;;;;;5022533;28;20029;-60
2021/06/01 01:21:13;;;;;;;1.20;0.80;;;23.20;43.10;;;;;;5021027;28;20040;-61
2021/06/01 01:23:43;;;;;;;2.03;1.00;;;23.20;43.10;;;;;;5015476;28;20554;-61
2021/06/01 01:26:17;;;;;;;1.63;0.80;;;23.20;43.20;;;;;;5019229;28;20105;-62
2021/06/01 01:29:11;;;;;;;2.03;1.00;;;23.20;43.10;;;;;;5015017;28;20041;-62
2021/06/01 01:31:50;;;;;;;2.08;1.05;;;23.20;43.10;;;;;;5021434;28;20464;-62
2021/06/01 01:34:17;;;;;;;2.33;0.85;;;23.20;43.70;;;;;;5015616;28;20116;-61
2021/06/01 01:36:45;;;;;;;2.40;0.85;;;23.20;43.10;;;;;;5015246;28;20056;-61
2021/06/01 01:39:13;;;;;;;1.88;1.00;;;23.20;43.10;;;;;;5026012;28;20029;-61
2021/06/01 01:41:40;;;;;;;1.63;0.80;;;23.20;43.10;;;;;;5024232;28;20031;-62
2021/06/01 01:44:10;;;;;;;1.52;0.90;;;23.10;43.10;;;;;;5021097;28;20583;-61
2021/06/01 01:49:14;;;;;;;1.95;1.00;;;23.10;43.10;;;;;;5012403;28;20038;-61
2021/06/01 01:51:44;;;;;;;2.17;1.20;;;23.10;43.10;;;;;;5021677;28;20037;-61
2021/06/01 01:54:17;;;;;;;2.03;0.90;;;23.10;43.10;;;;;;5020189;28;20079;-62
2021/06/01 01:56:46;;;;;;;1.85;0.80;;;23.10;43.10;;;;;;5020933;28;20030;-61
2021/06/01 01:59:17;;;;;;;2.95;0.98;;;23.10;43.10;;;;;;5015285;28;20449;-62
2021/06/01 02:01:48;;;;;;;1.15;0.68;;;23.10;43.10;;;;;;5016236;28;20342;-61
2021/06/01 02:04:22;;;;;;;0.98;0.68;;;23.10;43.10;;;;;;5023958;28;20039;-61
2021/06/01 02:06:48;;;;;;;1.70;0.90;;;23.10;43.10;;;;;;5019719;28;20049;-62
2021/06/01 02:09:14;;;;;;;2.20;0.88;;;23.00;43.10;;;;;;5016950;28;20093;-61
2021/06/01 02:11:40;;;;;;;1.83;1.02;;;23.00;43.10;;;;;;5008872;28;20029;-61
2021/06/01 02:14:07;;;;;;;2.10;1.13;;;23.00;43.10;;;;;;5014440;28;20061;-62
2021/06/01 02:16:41;;;;;;;2.45;1.00;;;23.00;43.10;;;;;;5019449;28;20060;-61
2021/06/01 02:19:09;;;;;;;2.30;0.95;;;23.00;43.10;;;;;;5023105;28;20084;-61
2021/06/01 02:24:15;;;;;;;2.35;0.90;;;23.00;43.10;;;;;;5024628;28;20087;-62
2021/06/01 02:27:03;;;;;;;1.25;0.70;;;23.00;43.10;;;;;;5012298;28;20513;-61
2021/06/01 02:29:47;;;;;;;1.08;0.80;;;23.00;43.10;;;;;;5015462;28;20054;-62
2021/06/01 02:32:15;;;;;;;1.70;0.95;;;23.00;43.20;;;;;;5016851;28;20044;-62
2021/06/01 02:34:43;;;;;;;2.33;1.00;;;23.00;43.20;;;;;;5008578;28;20116;-61
2021/06/01 02:37:10;;;;;;;1.88;0.90;;;23.00;43.20;;;;;;5021721;28;20502;-62
2021/06/01 02:39:37;;;;;;;2.65;1.10;;;23.00;43.20;;;;;;5016127;28;20096;-61
2021/06/01 02:42:08;;;;;;;0.90;0.70;;;22.90;43.10;;;;;;5019387;28;20029;-61
2021/06/01 02:44:34;;;;;;;2.50;1.02;;;23.00;43.20;;;;;;5015376;28;20081;-61
2021/06/01 02:47:00;;;;;;;1.13;0.82;;;22.90;43.10;;;;;;5012695;28;20092;-62
2021/06/01 02:49:27;;;;;;;1.83;1.00;;;22.90;43.20;;;;;;5016996;28;20033;-61
2021/06/01 02:51:54;;;;;;;1.88;0.80;;;22.90;43.10;;;;;;5023829;28;20481;-61
2021/06/01 02:54:20;;;;;;;1.80;0.90;;;22.90;43.20;;;;;;5024653;28;20035;-61
2021/06/01 02:56:47;;;;;;;1.52;0.82;;;22.90;43.20;;;;;;5016523;28;20702;-60
2021/06/01 02:59:13;;;;;;;1.55;0.90;;;22.90;43.20;;;;;;5022310;28;20108;-61
2021/06/01 03:01:39;;;;;;;1.73;0.90;;;22.90;43.20;;;;;;5008600;28;20873;-61
2021/06/01 03:04:07;;;;;;;1.23;0.80;;;22.90;43.70;;;;;;5011769;28;20033;-61
2021/06/01 03:06:34;;;;;;;1.95;1.00;;;22.80;43.10;;;;;;5016614;28;20072;-61
2021/06/01 03:09:00;;;;;;;2.83;1.00;;;22.80;43.10;;;;;;5037374;28;20087;-61
2021/06/01 03:11:26;;;;;;;1.80;0.95;;;22.90;43.20;;;;;;5011394;28;20037;-61
2021/06/01 03:13:52;;;;;;;1.08;0.80;;;22.80;43.10;;;;;;5024952;28;20112;-62
2021/06/01 03:16:19;;;;;;;2.20;0.90;;;22.80;43.10;;;;;;5023439;28;20036;-61
2021/06/01 03:18:45;;;;;;;2.70;1.00;;;22.80;43.10;;;;;;5024312;28;20049;-61
2021/06/01 03:21:13;;;;;;;2.42;1.15;;;22.80;43.10;;;;;;5024022;28;20025;-62
2021/06/01 03:23:38;;;;;;;1.23;0.80;;;22.80;43.20;;;;;;5018629;28;20030;-61
2021/06/01 03:26:04;;;;;;;1.73;1.00;;;22.80;43.20;;;;;;5018100;28;20032;-62
2021/06/01 03:28:31;;;;;;;1.55;0.90;;;22.80;43.20;;;;;;5017593;28;20022;-61
2021/06/01 03:30:57;;;;;;;1.05;0.70;;;22.80;43.20;;;;;;5018689;28;20041;-62
2021/06/01 03:33:22;;;;;;;1.63;0.68;;;22.80;43.20;;;;;;5026850;28;20103;-61
2021/06/01 03:35:48;;;;;;;1.15;0.80;;;22.80;43.20;;;;;;5020215;28;20112;-61
2021/06/01 03:38:14;;;;;;;1.23;0.73;;;22.80;43.20;;;;;;5021383;28;20526;-61
2021/06/01 03:40:41;;;;;;;1.40;0.85;;;22.70;43.20;;;;;;5011328;28;20026;-60
2021/06/01 03:43:08;;;;;;;1.50;0.88;;;22.70;43.20;;;;;;5025316;28;20035;-62
2021/06/01 03:45:35;;;;;;;1.58;0.80;;;22.70;43.20;;;;;;5024019;28;20029;-62
2021/06/01 03:48:01;;;;;;;1.52;0.98;;;22.70;43.20;;;;;;5013358;28;20027;-61
2021/06/01 03:50:26;;;;;;;2.97;1.00;;;22.70;43.20;;;;;;5025246;28;20033;-60
2021/06/01 03:52:52;;;;;;;2.00;1.10;;;22.70;43.20;;;;;;5021497;28;20033;-61
2021/06/01 03:55:19;;;;;;;1.08;0.80;;;22.70;43.20;;;;;;5017870;28;20357;-62
2021/06/01 03:57:46;;;;;;;1.23;0.80;;;22.70;43.30;;;;;;5024843;28;20121;-61
2021/06/01 04:00:14;;;;;;;1.88;0.77;;;22.60;43.20;;;;;;5012736;28;20445;-62
2021/06/01 04:02:40;;;;;;;1.33;0.70;;;22.60;43.20;;;;;;5019886;28;20337;-61
2021/06/01 04:05:06;;;;;;;1.10;0.80;;;22.70;43.30;;;;;;5024333;28;20128;-61
2021/06/01 04:07:32;;;;;;;0.95;0.73;;;22.60;43.70;;;;;;5020646;28;20045;-61
2021/06/01 04:09:57;;;;;;;1.63;0.98;;;22.60;43.80;;;;;;5015682;28;20038;-61
2021/06/01 04:12:23;;;;;;;1.33;0.88;;;22.60;43.20;;;;;;5018914;28;20060;-61
2021/06/01 04:14:49;;;;;;;1.10;0.80;;;22.60;43.20;;;;;;5021385;28;20037;-61
2021/06/01 04:17:14;;;;;;;1.45;0.90;;;22.60;43.20;;;;;;5023691;28;20508;-61
2021/06/01 04:19:40;;;;;;;0.90;0.70;;;22.60;43.20;;;;;;5022015;28;20057;-61
2021/06/01 04:22:06;;;;;;;1.40;0.98;;;22.60;43.20;;;;;;5013114;28;20049;-61
2021/06/01 04:24:32;;;;;;;1.33;0.80;;;22.60;43.20;;;;;;5028122;28;20597;-61
2021/06/01 04:26:59;;;;;;;0.88;0.80;;;22.60;43.20;;;;;;5014719;28;20029;-62
2021/06/01 04:29:25;;;;;;;1.70;0.80;;;22.60;43.20;;;;;;5018303;28;20025;-59
2021/06/01 04:31:51;;;;;;;0.80;0.77;;;22.60;43.20;;;;;;5028383;28;20037;-61
2021/06/01 04:34:17;;;;;;;1.13;0.80;;;22.60;43.30;;;;;;5026638;28;20025;-61
2021/06/01 04:36:43;;;;;;;1.15;0.73;;;22.60;43.20;;;;;;5022013;28;20041;-61
2021/06/01 04:39:08;;;;;;;1.20;0.70;;;22.60;43.30;;;;;;5023265;28;20131;-62
2021/06/01 04:41:34;;;;;;;1.05;0.63;;;22.50;43.20;;;;;;5011778;28;20113;-62
2021/06/01 04:44:00;;;;;;;0.85;0.70;;;22.50;43.20;;;;;;5025313;28;20330;-61
2021/06/01 04:46:25;;;;;;;0.93;0.73;;;22.50;43.30;;;;;;5017106;28;20135;-61
2021/06/01 04:48:51;;;;;;;1.77;0.80;;;22.50;43.20;;;;;;5016986;28;20121;-61
2021/06/01 04:51:18;;;;;;;0.98;0.73;;;22.50;43.30;;;;;;5012368;28;20045;-61
2021/06/01 04:53:48;;;;;;;0.98;0.70;;;22.50;43.30;;;;;;5025058;28;20485;-62
2021/06/01 04:56:14;;;;;;;2.42;0.70;;;22.50;43.30;;;;;;5026442;28;20494;-62
2021/06/01 04:58:39;;;;;;;1.05;0.70;;;22.50;43.30;;;;;;5022711;28;20068;-61
2021/06/01 05:01:05;;;;;;;1.42;0.70;;;22.50;43.30;;;;;;5021724;28;20048;-61
2021/06/01 05:03:31;;;;;;;1.75;0.80;;;22.50;43.30;;;;;;5017717;28;20037;-62
2021/06/01 05:05:57;;;;;;;1.65;0.80;;;22.50;43.30;;;;;;5019510;28;20033;-62
2021/06/01 05:08:22;;;;;;;1.15;0.77;;;22.50;43.30;;;;;;5026326;28;20041;-61
2021/06/01 05:10:48;;;;;;;1.05;0.77;;;22.40;43.30;;;;;;5028994;28;20057;-62
2021/06/01 05:13:13;;;;;;;1.75;0.70;;;22.40;43.30;;;;;;5017317;28;20472;-61
2021/06/01 05:15:39;;;;;;;1.35;0.85;;;22.40;43.30;;;;;;5015220;28;20030;-61
2021/06/01 05:18:05;;;;;;;0.90;0.80;;;22.40;43.60;;;;;;5019697;28;20164;-61
2021/06/01 05:20:30;;;;;;;0.80;0.60;;;22.40;43.30;;;;;;5026943;28;20021;-62
2021/06/01 05:22:56;;;;;;;1.10;0.70;;;22.40;43.30;;;;;;5024555;28;20038;-61
2021/06/01 05:25:21;;;;;;;1.60;0.80;;;22.40;43.30;;;;;;5023044;28;20037;-60
2021/06/01 05:27:47;;;;;;;1.48;0.80;;;22.40;43.20;;;;;;5017293;28;20362;-61
2021/06/01 05:30:17;;;;;;;1.15;0.70;;;22.40;43.80;;;;;;5013099;28;20026;-61
2021/06/01 05:35:20;;;;;;;1.08;0.80;;;22.40;43.20;;;;;;5023214;28;20030;-63
2021/06/01 05:37:46;;;;;;;1.70;0.90;;;22.40;43.20;;;;;;5021859;28;20086;-61
2021/06/01 05:40:13;;;;;;;1.60;0.80;;;22.40;43.20;;;;;;5027359;28;20037;-60
2021/06/01 05:42:39;;;;;;;1.55;0.88;;;22.40;43.20;;;;;;5023310;28;20025;-62
2021/06/01 05:45:05;;;;;;;1.23;0.85;;;22.40;43.20;;;;;;5022980;28;20505;-62
2021/06/01 05:47:31;;;;;;;1.15;0.88;;;22.40;43.20;;;;;;5013566;28;20057;-62
2021/06/01 05:49:57;;;;;;;2.00;0.80;;;22.30;43.20;;;;;;5025800;28;20044;-61
2021/06/01 05:52:22;;;;;;;1.20;0.80;;;22.40;43.30;;;;;;5026784;28;20089;-61
2021/06/01 05:54:48;;;;;;;1.13;0.75;;;22.30;43.20;;;;;;5017627;28;20037;-62
2021/06/01 05:57:13;;;;;;;1.70;0.90;;;22.30;43.20;;;;;;5023674;28;20045;-61
2021/06/01 05:59:39;;;;;;;0.93;0.70;;;22.30;43.20;;;;;;5019929;28;20584;-60
2021/06/01 06:02:05;;;;;;;1.52;0.80;;;22.30;43.20;;;;;;5012662;28;20211;-61
2021/06/01 06:04:31;;;;;;;1.60;0.82;;;22.30;43.20;;;;;;5026322;28;20048;-62
2021/06/01 06:06:56;;;;;;;1.23;0.80;;;22.30;43.20;;;;;;5019224;28;20317;-61
2021/06/01 06:09:22;;;;;;;1.40;0.70;;;22.30;43.20;;;;;;5026178;28;20045;-62
2021/06/01 06:11:47;;;;;;;0.98;0.80;;;22.30;43.20;;;;;;5025959;28;20056;-61
2021/06/01 06:14:13;;;;;;;1.30;0.80;;;22.30;43.20;;;;;;5020812;28;20034;-61
2021/06/01 06:16:46;;;;;;;1.70;0.82;;;22.30;43.30;;;;;;5025307;28;20480;-62
2021/06/01 06:19:12;;;;;;;1.00;0.77;;;22.30;43.20;;;;;;5025861;28;20040;-61
2021/06/01 06:21:37;;;;;;;1.20;0.70;;;22.30;43.30;;;;;;5017287;28;20025;-61
2021/06/01 06:24:04;;;;;;;2.20;0.80;;;22.30;43.20;;;;;;5026179;28;20109;-61
2021/06/01 06:26:30;;;;;;;1.52;0.90;;;22.30;43.30;;;;;;5015524;28;20137;-62
2021/06/01 06:28:56;;;;;;;1.25;0.80;;;22.30;43.30;;;;;;5017212;28;20029;-61
2021/06/01 06:31:27;;;;;;;1.80;0.90;;;22.30;43.30;;;;;;5025731;28;20163;-61
2021/06/01 06:33:52;;;;;;;1.48;0.80;;;22.30;43.30;;;;;;5025661;28;20033;-61
2021/06/01 06:36:18;;;;;;;1.38;0.90;;;22.30;43.30;;;;;;5024566;28;20035;-61
2021/06/01 06:38:46;;;;;;;1.90;1.00;;;22.30;43.30;;;;;;5025047;28;20184;-61
2021/06/01 06:41:15;;;;;;;1.63;0.80;;;22.30;43.30;;;;;;5021656;28;20029;-61
2021/06/01 06:43:50;;;;;;;1.17;1.00;;;22.30;43.30;;;;;;5009592;28;20037;-61
2021/06/01 06:46:23;;;;;;;1.55;0.85;;;22.30;43.80;;;;;;5021376;28;20033;-60
2021/06/01 06:48:49;;;;;;;1.70;0.90;;;22.30;43.30;;;;;;5024603;28;20025;-60
2021/06/01 06:51:15;;;;;;;1.50;0.98;;;22.30;43.40;;;;;;5020167;28;20036;-62
2021/06/01 06:53:51;;;;;;;1.83;1.00;;;22.30;43.40;;;;;;5021459;28;20076;-61
2021/06/01 06:56:17;;;;;;;1.50;1.00;;;22.30;43.40;;;;;;5014828;28;20810;-61
2021/06/01 06:58:43;;;;;;;2.65;1.00;;;22.30;43.40;;;;;;5021101;28;20045;-61
2021/06/01 07:01:10;;;;;;;1.23;0.90;;;22.30;43.40;;;;;;5019976;28;20042;-61
2021/06/01 07:03:35;;;;;;;2.05;1.10;;;22.30;43.40;;;;;;5023656;28;20029;-62
2021/06/01 07:06:01;;;;;;;1.08;0.82;;;22.30;43.50;;;;;;5017150;28;20500;-61
2021/06/01 07:08:27;;;;;;;1.80;1.00;;;22.30;43.40;;;;;;5025921;28;20498;-61
2021/06/01 07:10:52;;;;;;;2.15;1.00;;;22.20;43.40;;;;;;5025979;28;20062;-62
2021/06/01 07:13:21;;;;;;;2.90;1.13;;;22.20;43.40;;;;;;5023184;28;20071;-62
2021/06/01 07:15:52;;;;;;;1.45;0.90;;;22.20;43.40;;;;;;5018345;28;20038;-61
2021/06/01 07:18:18;;;;;;;2.75;1.10;;;22.20;43.40;;;;;;5022036;28;20018;-61
2021/06/01 07:20:44;;;;;;;1.75;1.10;;;22.20;43.40;;;;;;5023180;28;20033;-61
2021/06/01 07:23:10;;;;;;;1.63;1.10;;;22.20;43.40;;;;;;5017178;28;20044;-61
2021/06/01 07:25:36;;;;;;;2.20;1.15;;;22.20;43.40;;;;;;5021710;28;20048;-62
2021/06/01 07:28:02;;;;;;;2.00;1.13;;;22.20;43.30;;;;;;5020848;28;20099;-61
2021/06/01 07:30:28;;;;;;;2.22;1.10;;;22.20;43.30;;;;;;5022007;28;20029;-62
2021/06/01 07:32:54;;;;;;;1.58;1.00;;;22.20;43.30;;;;;;5024083;28;20067;-61
2021/06/01 07:35:21;;;;;;;1.70;1.10;;;22.20;43.30;;;;;;5014540;28;20498;-60
2021/06/01 07:37:47;;;;;;;3.20;1.20;;;22.20;43.30;;;;;;5021608;28;20053;-62
2021/06/01 07:40:13;;;;;;;1.60;1.00;;;22.20;43.30;;;;;;5015650;28;20392;-61
2021/06/01 07:42:39;;;;;;;2.90;1.13;;;22.20;43.30;;;;;;5014162;28;20036;-61
2021/06/01 07:45:06;;;;;;;2.25;1.15;;;22.20;43.30;;;;;;5024233;28;20038;-62
2021/06/01 07:47:32;;;;;;;2.17;1.25;;;22.30;43.30;;;;;;5019979;28;20068;-61
2021/06/01 07:49:58;;;;;;;2.88;1.10;;;22.20;43.30;;;;;;5023333;28;20102;-61
2021/06/01 07:52:23;;;;;;;1.77;1.00;;;22.20;43.30;;;;;;5010757;28;20172;-61
2021/06/01 07:54:50;;;;;;;2.47;1.20;;;22.20;43.30;;;;;;5017555;28;20029;-62
2021/06/01 07:57:15;;;;;;;1.40;0.90;;;22.20;43.30;;;;;;5024284;28;20032;-61
2021/06/01 07:59:41;;;;;;;1.33;1.10;;;22.20;43.30;;;;;;5016148;28;20034;-61
2021/06/01 08:02:07;;;;;;;1.55;1.10;;;22.20;43.30;;;;;;5020717;28;20052;-61
2021/06/01 08:04:33;;;;;;;1.60;1.10;;;22.20;43.30;;;;;;5016942;28;20030;-62
2021/06/01 08:07:03;;;;;;;1.40;1.10;;;22.20;43.30;;;;;;5024201;28;20033;-61
2021/06/01 08:09:29;;;;;;;1.05;0.90;;;22.20;43.30;;;;;;5024593;28;20150;-62
2021/06/01 08:11:55;;;;;;;2.13;1.00;;;22.20;43.30;;;;;;5022421;28;20100;-62
2021/06/01 08:14:20;;;;;;;1.65;1.00;;;22.20;43.30;;;;;;5026313;28;20822;-61
2021/06/01 08:16:46;;;;;;;1.38;1.00;;;22.20;43.30;;;;;;5023997;28;20022;-62
2021/06/01 08:19:19;;;;;;;1.42;1.10;;;22.20;43.30;;;;;;5021858;28;20057;-61
2021/06/01 08:24:10;;;;;;;1.70;1.05;;;22.20;43.20;;;;;;5016124;28;20313;-63
2021/06/01 08:26:36;;;;;;;1.33;0.90;;;22.20;43.30;;;;;;5020919;28;20033;-61
2021/06/01 08:29:02;;;;;;;1.75;1.08;;;22.20;43.20;;;;;;5023529;28;20037;-62
2021/06/01 08:31:28;;;;;;;1.52;0.95;;;22.20;43.20;;;;;;5019830;28;20056;-62
2021/06/01 08:33:53;;;;;;;1.00;0.90;;;22.20;43.20;;;;;;5020953;28;20794;-63
2021/06/01 08:36:19;;;;;;;1.60;0.90;;;22.20;43.20;;;;;;5023618;28;20599;-63
2021/06/01 08:38:45;;;;;;;1.73;1.15;;;22.20;43.20;;;;;;5024290;28;20041;-60
2021/06/01 08:41:16;;;;;;;1.50;1.00;;;22.20;43.20;;;;;;5020204;28;20033;-62
2021/06/01 08:43:42;;;;;;;1.20;1.10;;;22.20;43.20;;;;;;5020070;28;20076;-62
2021/06/01 08:46:09;;;;;;;2.45;1.10;;;22.20;43.20;;;;;;5018259;28;20065;-62
2021/06/01 08:48:35;;;;;;;1.08;0.90;;;22.20;43.10;;;;;;5023703;28;20040;-62
2021/06/01 08:51:01;;;;;;;1.33;1.08;;;22.20;43.10;;;;;;5013565;28;20029;-62
2021/06/01 08:53:26;;;;;;;1.83;1.00;;;22.20;43.10;;;;;;5021246;28;20507;-62
2021/06/01 08:55:52;;;;;;;1.40;1.00;;;22.30;43.20;;;;;;5020232;28;20562;-62
2021/06/01 08:58:20;;;;;;;1.20;0.90;;;22.20;43.10;;;;;;5022332;28;20092;-62
2021/06/01 09:00:47;;;;;;;1.25;1.00;;;22.20;43.10;;;;;;5022048;28;20041;-61
2021/06/01 09:03:17;;;;;;;1.45;1.00;;;22.20;43.10;;;;;;5016603;28;20025;-63
2021/06/01 09:06:03;;;;;;;1.30;1.10;;;22.20;43.10;;;;;;5027047;28;20074;-62
2021/06/01 09:22:04;;;;;;;1.80;1.10;;;22.20;43.00;;;;;;5026680;28;20103;-62
2021/06/01 09:24:30;;;;;;;1.60;1.10;;;22.20;42.90;;;;;;5023297;28;20112;-62
2021/06/01 09:27:04;;;;;;;1.23;0.98;;;22.20;42.90;;;;;;5027950;28;20037;-62
2021/06/01 09:29:32;;;;;;;1.30;0.93;;;22.20;42.90;;;;;;5028451;28;20128;-62
2021/06/01 09:32:18;;;;;;;1.23;0.90;;;22.20;43.40;;;;;;5024685;28;20552;-62
2021/06/01 09:34:52;;;;;;;1.40;0.95;;;22.30;42.90;;;;;;5020833;28;20108;-61
2021/06/01 09:37:29;;;;;;;1.23;1.00;;;22.20;42.80;;;;;;5023683;28;20026;-61
2021/06/01 09:40:18;;;;;;;1.42;1.10;;;22.20;42.80;;;;;;5023565;28;20042;-62
2021/06/01 09:42:47;;;;;;;1.40;1.00;;;22.20;42.80;;;;;;5022813;28;20749;-61
2021/06/01 09:45:23;;;;;;;1.20;0.90;;;22.20;42.80;;;;;;5022107;28;20489;-61
2021/06/01 09:48:01;;;;;;;1.33;0.90;;;22.20;42.80;;;;;;5015432;28;20487;-62
2021/06/01 09:53:30;;;;;;;1.00;0.90;;;22.20;42.80;;;;;;5024250;28;20037;-62
2021/06/01 09:55:57;;;;;;;1.27;0.90;;;22.20;42.80;;;;;;5020754;28;20068;-61
2021/06/01 09:58:28;;;;;;;1.05;0.90;;;22.20;42.80;;;;;;5025928;28;20037;-62
2021/06/01 10:00:55;;;;;;;1.52;1.10;;;22.20;42.80;;;;;;5014695;28;20068;-61
2021/06/01 10:03:23;;;;;;;1.48;0.90;;;22.20;42.80;;;;;;5020126;28;20113;-61
2021/06/01 10:05:51;;;;;;;1.40;0.90;;;22.20;42.80;;;;;;5015332;28;20460;-61
2021/06/01 10:08:23;;;;;;;1.52;1.10;;;22.20;42.70;;;;;;5007708;28;20029;-61
2021/06/01 10:10:53;;;;;;;1.15;1.05;;;22.20;42.00;;;;;;5023539;28;20488;-61
2021/06/01 10:13:21;;;;;;;2.33;1.27;;;22.20;41.20;;;;;;5020480;28;20128;-62
2021/06/01 10:15:46;;;;;;;1.85;1.20;;;22.20;40.70;;;;;;5019324;28;20033;-62
2021/06/01 10:18:14;;;;;;;2.17;1.40;;;22.20;40.20;;;;;;5019299;28;20090;-62
2021/06/01 10:20:43;;;;;;;3.70;1.70;;;22.20;39.80;;;;;;5023049;28;20551;-61
2021/06/01 10:23:09;;;;;;;2.00;1.40;;;22.20;39.50;;;;;;5024234;28;20460;-61
2021/06/01 10:25:36;;;;;;;1.90;1.30;;;22.20;39.20;;;;;;5022356;28;20093;-62
2021/06/01 10:28:04;;;;;;;2.80;1.30;;;22.20;39.10;;;;;;5014231;28;20087;-63
2021/06/01 10:30:34;;;;;;;2.97;1.17;;;22.10;39.10;;;;;;5017492;28;20448;-62
2021/06/01 10:33:03;;;;;;;2.25;1.27;;;22.10;39.10;;;;;;5019192;28;20030;-62
2021/06/01 10:35:35;;;;;;;3.00;1.50;;;22.20;39.10;;;;;;5025129;28;20037;-62
2021/06/01 10:52:09;;;;;;;2.45;1.30;;;22.10;38.40;;;;;;5020426;28;20589;-60
2021/06/01 10:54:42;;;;;;;2.20;1.40;;;22.10;38.50;;;;;;5015823;28;20158;-61
2021/06/01 10:57:11;;;;;;;2.30;1.33;;;22.20;38.20;;;;;;5018528;28;20026;-61
2021/06/01 11:02:16;;;;;;;2.53;1.35;;;22.20;37.80;;;;;;5015997;28;20717;-61
2021/06/01 11:05:01;;;;;;;1.70;1.20;;;22.10;37.70;;;;;;5023461;28;20040;-63
2021/06/01 11:07:38;;;;;;;2.53;1.40;;;22.10;37.50;;;;;;5012336;28;20053;-60
2021/06/01 11:10:04;;;;;;;2.05;1.20;;;22.10;37.50;;;;;;5022769;28;20049;-61
2021/06/01 11:12:35;;;;;;;1.88;1.20;;;22.10;37.70;;;;;;5021927;28;20124;-60
2021/06/01 11:15:23;;;;;;;1.63;1.20;;;22.10;37.50;;;;;;5023378;28;20083;-62
2021/06/01 11:17:49;;;;;;;2.05;1.20;;;22.10;37.40;;;;;;5022733;28;20056;-61
2021/06/01 11:20:41;;;;;;;1.67;1.15;;;22.20;37.60;;;;;;5023274;28;20025;-62
2021/06/01 11:34:14;;;;;;;1.65;1.13;;;22.20;38.10;;;;;;5012309;28;20040;-61
2021/06/01 11:36:40;;;;;;;1.50;1.10;;;22.20;38.30;;;;;;5016774;28;20037;-60
2021/06/01 11:44:23;;;;;;;1.70;1.10;;;22.20;38.40;;;;;;5015235;28;20403;-61
2021/06/01 11:46:57;;;;;;;1.77;1.05;;;22.20;38.20;;;;;;5023391;28;20511;-60
2021/06/01 11:52:09;;;;;;;1.60;1.10;;;22.20;38.30;;;;;;5024762;28;20098;-61
2021/06/01 11:54:35;;;;;;;1.60;1.00;;;22.20;38.50;;;;;;5022678;28;20065;-62
2021/06/01 12:19:10;;;;;;;1.80;1.00;;;22.30;39.00;;;;;;5014064;28;20060;-61
2021/06/01 12:21:43;;;;;;;1.70;1.13;;;22.30;39.10;;;;;;5024807;28;20207;-61
2021/06/01 12:24:16;;;;;;;1.60;1.15;;;22.30;39.10;;;;;;5025183;28;20043;-61
2021/06/01 13:21:50;;;;;;;1.10;1.00;;;22.40;39.50;;;;;;5019221;28;20349;-61
2021/06/01 13:38:39;;;;;;;1.55;1.00;;;22.40;39.60;;;;;;5017202;28;20372;-61
2021/06/01 13:46:50;;;;;;;1.52;1.05;;;22.40;39.60;;;;;;5016852;28;20052;-62
2021/06/01 13:49:31;;;;;;;1.17;0.90;;;22.40;39.60;;;;;;5016985;28;20053;-62
2021/06/01 13:52:48;;;;;;;2.25;1.00;;;22.40;39.50;;;;;;5019596;28;20053;-61
2021/06/01 13:55:13;;;;;;;1.63;1.10;;;22.40;39.60;;;;;;5019777;28;20052;-62
2021/06/01 14:29:16;;;;;;;1.55;1.00;;;22.50;40.20;;;;;;5013120;28;20102;-61
2021/06/01 14:39:43;;;;;;;1.17;0.95;;;22.70;40.30;;;;;;5025708;28;20033;-60
2021/06/01 15:04:10;;;;;;;1.75;1.05;;;22.80;40.20;;;;;;5013182;28;20040;-61
2021/06/01 15:28:47;;;;;;;2.03;0.90;;;22.90;40.30;;;;;;5010355;28;20052;-62
2021/06/01 15:50:22;;;;;;;2.55;1.00;;;23.00;40.50;;;;;;5009610;28;20141;-60
2021/06/01 16:15:27;;;;;;;1.45;0.85;;;23.10;40.50;;;;;;5017942;28;20048;-62
2021/06/01 16:23:38;;;;;;;1.58;0.90;;;23.10;40.50;;;;;;5018899;28;20115;-61
2021/06/01 16:31:36;;;;;;;2.05;0.90;;;23.10;40.40;;;;;;5019707;28;20196;-62
2021/06/01 16:42:46;;;;;;;2.83;1.05;;;23.10;40.40;;;;;;5009398;28;20090;-62
2021/06/01 17:04:43;;;;;;;2.67;1.30;;;23.10;37.00;;;;;;5014714;28;20095;-61
2021/06/01 17:07:35;;;;;;;1.83;1.02;;;23.10;36.70;;;;;;5014151;28;20033;-61
2021/06/01 17:13:01;;;;;;;1.92;1.00;;;23.10;36.00;;;;;;5021657;28;20106;-62
2021/06/01 17:15:28;;;;;;;1.30;0.93;;;23.10;35.80;;;;;;5015427;28;20037;-61
2021/06/01 17:18:00;;;;;;;1.50;1.00;;;23.10;35.70;;;;;;5015987;28;20071;-62
2021/06/01 17:36:44;;;;;;;2.28;1.00;;;23.10;34.90;;;;;;5012114;28;20634;-61
2021/06/01 17:39:10;;;;;;;0.98;0.85;;;23.10;34.70;;;;;;5014416;28;20082;-61
2021/06/01 17:41:36;;;;;;;1.40;0.90;;;23.10;34.80;;;;;;5020648;28;20112;-61
2021/06/01 17:44:05;;;;;;;2.05;0.90;;;23.10;34.80;;;;;;5023366;28;20029;-62
2021/06/01 17:46:35;;;;;;;3.33;1.00;;;23.00;34.90;;;;;;5020695;28;20041;-62
2021/06/01 17:49:02;;;;;;;0.90;0.80;;;23.00;35.00;;;;;;5016689;28;20132;-62
2021/06/01 17:51:29;;;;;;;1.30;0.85;;;23.00;35.30;;;;;;5010840;28;20025;-62
2021/06/01 17:53:59;;;;;;;1.30;1.00;;;23.10;35.50;;;;;;5023112;28;20227;-62
2021/06/01 17:56:27;;;;;;;1.52;0.80;;;23.10;35.70;;;;;;5015661;28;20033;-62
2021/06/01 17:58:53;;;;;;;1.30;0.70;;;23.10;36.00;;;;;;5016466;28;20034;-61
2021/06/01 18:01:21;;;;;;;1.58;0.85;;;23.10;36.20;;;;;;5019238;28;20038;-62
2021/06/01 18:04:00;;;;;;;0.93;0.80;;;23.10;36.30;;;;;;5020457;28;20038;-61
2021/06/01 18:06:31;;;;;;;3.15;1.00;;;23.10;36.40;;;;;;5021977;28;20033;-61
2021/06/01 18:09:10;;;;;;;0.75;0.75;;;23.20;36.60;;;;;;5016483;28;20117;-62
2021/06/01 18:11:50;;;;;;;1.20;0.80;;;23.10;36.70;;;;;;5021202;28;20022;-61
2021/06/01 19:50:21;;;;;;;2.22;0.80;;;23.90;39.50;;;;;;5021207;28;20529;-62
2021/06/01 19:52:49;;;;;;;1.00;0.68;;;23.90;39.60;;;;;;5022620;28;20029;-62
2021/06/01 19:55:16;;;;;;;1.05;0.80;;;23.90;39.60;;;;;;5021464;28;20033;-62
2021/06/01 19:57:43;;;;;;;1.20;0.80;;;23.90;39.60;;;;;;5009675;28;20065;-62
2021/06/01 20:00:11;;;;;;;1.65;0.90;;;23.90;39.60;;;;;;5021289;28;20534;-62
2021/06/01 20:02:37;;;;;;;1.10;0.70;;;23.90;39.60;;;;;;5016635;28;20052;-61
2021/06/01 20:05:12;;;;;;;0.90;0.80;;;23.90;39.60;;;;;;5022436;28;20656;-62
2021/06/01 20:07:39;;;;;;;2.05;0.73;;;23.90;39.60;;;;;;5014564;28;20037;-62
2021/06/01 20:10:07;;;;;;;1.38;0.75;;;23.90;39.70;;;;;;5021896;28;20030;-62
2021/06/01 20:12:33;;;;;;;1.65;0.95;;;23.90;39.60;;;;;;5021487;28;20041;-62
2021/06/01 20:14:59;;;;;;;2.65;1.00;;;23.90;39.60;;;;;;5023881;28;20038;-62